Latest Weather Observations for Canterbury

IDN60901

Issued at 5:32 pm EDT Sunday 28 February 2021 (issued every 10 minutes, with the page automatically refreshed every 10 minutes)

About weather observations | Map of Sydney area stations | Latest observations for Sydney area | Other Formats
Station Details ID: 066194 Name: CANTERBURY RACECOURSE AWS Lat: -33.91 Lon: 151.11 Height: 3.0 m
Data from the previous 72 hours. | See also: Recent months at Canterbury
Date/Time
EDT
Temp
°C
App
Temp
°C
Dew
Point
°C
Rel
Hum
%
Delta-T
°C
Wind Press
QNH
hPa
Press
MSL
hPa
Rain since
9am
mm
Dir  Spd
km/h
Gust
km/h
Spd
kts
Gust
kts
28/05:30pm 24.8 24.2 18.5 68 4.0 SE 19 28 10 15 - - 0.0
28/05:00pm 24.8 24.1 18.7 69 3.9 SE 20 30 11 16 - - 0.0
28/04:30pm 25.5 25.0 19.2 68 4.0 SE 20 28 11 15 - - 0.0
28/04:00pm 25.8 25.4 19.0 66 4.4 SE 19 32 10 17 - - 0.0
28/03:30pm 25.3 24.4 17.7 62 4.8 SE 19 28 10 15 - - 0.0
28/03:00pm 25.5 25.4 18.7 66 4.3 SE 17 30 9 16 - - 0.0
28/02:30pm 25.6 25.5 18.8 66 4.3 SE 17 24 9 13 - - 0.0
28/02:00pm 25.6 25.2 18.8 66 4.3 ESE 19 24 10 13 - - 0.0
28/01:30pm 25.2 24.0 17.4 62 4.9 SE 20 32 11 17 - - 0.0
28/01:00pm 25.4 24.3 17.8 62 4.8 SE 20 30 11 16 - - 0.0
28/12:30pm 25.4 24.5 17.8 62 4.8 SE 19 26 10 14 - - 0.0
28/12:00pm 25.4 24.5 18.3 65 4.5 ESE 20 26 11 14 - - 0.0
28/11:30am 25.8 26.7 19.2 67 4.2 SE 13 24 7 13 - - 0.0
28/11:00am 25.2 26.2 17.7 63 4.7 S 9 19 5 10 - - 0.0
28/10:30am 24.6 25.0 18.1 67 4.1 SSE 13 19 7 10 - - 0.0
28/10:00am 24.4 26.0 19.9 76 2.9 SSE 11 22 6 12 - - 0.0
28/09:30am 22.9 22.8 17.8 73 3.2 S 15 24 8 13 - - 0.0
28/09:00am 22.3 22.1 18.5 79 2.4 S 17 22 9 12 - - 0.0
28/08:30am 21.3 23.0 19.4 89 1.2 SSE 9 15 5 8 - - 0.0
28/08:00am 20.6 22.0 20.4 99 0.1 SSE 13 20 7 11 - - 0.0
28/07:30am 20.0 23.0 20.0 100 0.0 SE 4 9 2 5 - - 0.0
28/07:22am 19.8 22.7 19.8 100 0.0 SSE 4 7 2 4 - - 0.0
28/07:00am 18.3 21.2 18.1 99 0.1 CALM 0 0 0 0 - - 0.0
28/06:30am 18.2 21.0 18.0 99 0.1 CALM 0 0 0 0 - - 0.0
28/06:00am 18.3 21.2 18.1 99 0.1 CALM 0 0 0 0 - - 0.0
28/05:30am 18.3 21.2 18.1 99 0.1 CALM 0 0 0 0 - - 0.0
28/05:00am 18.7 21.7 18.4 98 0.2 CALM 0 0 0 0 - - 0.0
28/04:30am 18.7 21.6 18.2 97 0.3 CALM 0 0 0 0 - - 0.0
28/04:00am 19.1 22.2 18.6 97 0.3 CALM 0 0 0 0 - - 0.0
28/03:33am 19.2 22.3 18.7 97 0.3 CALM 0 0 0 0 - - 0.0
28/03:30am 19.2 22.2 18.5 96 0.4 CALM 0 0 0 0 - - 0.0
28/03:21am 18.9 21.8 18.2 96 0.4 CALM 0 0 0 0 - - 0.0
28/03:00am 19.2 22.2 18.4 95 0.5 CALM 0 0 0 0 - - 0.0
28/02:54am 19.1 22.0 18.1 94 0.6 CALM 0 0 0 0 - - 0.0
28/02:39am 19.1 21.9 17.9 93 0.7 CALM 0 0 0 0 - - 0.0
28/02:30am 19.3 22.1 18.0 92 0.8 CALM 0 0 0 0 - - 0.0
28/02:20am 19.0 21.6 17.5 91 0.9 CALM 0 0 0 0 - - 0.0
28/02:00am 19.7 22.2 18.2 91 0.9 NNW 2 6 1 3 - - 0.0
28/01:30am 20.6 22.7 19.3 92 0.8 N 7 9 4 5 - - 0.0
28/01:00am 20.7 22.6 19.0 90 1.1 N 7 11 4 6 - - 0.0
28/12:30am 21.3 23.6 19.4 89 1.2 N 6 9 3 5 - - 0.0
28/12:00am 21.2 24.2 19.3 89 1.2 N 2 6 1 3 - - 0.0
 
Date/Time
EDT
Temp
°C
App
Temp
°C
Dew
Point
°C
Rel
Hum
%
Delta-T
°C
Wind Press
QNH
hPa
Press
MSL
hPa
Rain since
9am
mm
Dir  Spd
km/h
Gust
km/h
Spd
kts
Gust
kts
27/11:30pm 21.2 23.4 19.1 88 1.3 N 6 11 3 6 - - 0.0
27/11:00pm 21.4 23.9 19.1 87 1.5 N 4 9 2 5 - - 0.0
27/10:30pm 21.7 23.4 19.4 87 1.5 NNE 9 13 5 7 - - 0.0
27/10:00pm 21.8 23.1 19.4 86 1.5 NNE 11 15 6 8 - - 0.0
27/09:30pm 21.9 23.3 19.6 87 1.5 NNE 11 17 6 9 - - 0.0
27/09:00pm 21.7 23.9 19.6 88 1.3 NE 7 13 4 7 - - 0.0
27/08:30pm 21.6 23.4 19.5 88 1.3 NE 9 15 5 8 - - 0.0
27/08:00pm 21.6 23.3 19.3 87 1.5 NE 9 17 5 9 - - 0.0
27/07:30pm 21.8 22.6 19.0 84 1.8 NE 13 20 7 11 - - 0.0
27/07:00pm 22.6 23.2 18.6 78 2.5 NE 13 19 7 10 - - 0.0
27/06:30pm 23.0 24.0 18.7 77 2.7 NE 11 17 6 9 - - 0.0
27/06:00pm 23.0 23.5 18.3 75 2.9 NE 13 19 7 10 - - 0.0
27/05:30pm 23.1 23.8 18.8 77 2.7 NNE 13 17 7 9 - - 0.0
27/05:00pm 22.6 23.5 18.4 77 2.6 NNE 11 19 6 10 - - 0.0
27/04:30pm 22.8 23.7 18.3 76 2.8 NE 11 17 6 9 - - 0.0
27/04:00pm 22.5 23.4 18.5 78 2.5 NE 11 19 6 10 - - 0.0
27/03:30pm 22.4 23.9 19.0 81 2.2 ENE 9 13 5 7 - - 0.0
27/03:00pm 22.4 23.4 18.6 79 2.4 NE 11 15 6 8 - - 0.0
27/02:30pm 22.4 23.5 18.8 80 2.3 NE 11 19 6 10 - - 0.0
27/02:00pm 22.0 23.3 19.2 84 1.8 NE 11 15 6 8 - - 0.0
27/01:30pm 21.2 22.0 19.1 88 1.3 NNE 13 20 7 11 - - 0.0
27/01:25pm 21.4 23.0 19.9 91 1.0 NNE 11 19 6 10 - - 0.0
27/01:00pm 20.7 22.0 19.2 91 0.9 N 11 17 6 9 - - 0.0
27/12:49pm 20.8 21.8 18.7 88 1.3 NNE 11 19 6 10 - - 0.0
27/12:46pm 21.0 22.6 19.1 89 1.2 NNE 9 19 5 10 - - 0.0
27/12:30pm 20.8 22.9 18.9 89 1.2 ENE 6 11 3 6 - - 0.0
27/12:20pm 20.8 22.2 18.7 88 1.3 NE 9 13 5 7 - - 0.0
27/12:15pm 21.0 22.5 18.9 88 1.3 NE 9 13 5 7 - - 0.0
27/12:02pm 20.7 21.6 18.5 87 1.4 NNE 11 13 6 7 - - 0.0
27/12:00pm 20.8 21.8 18.6 87 1.4 NNE 11 13 6 7 - - 0.0
27/11:30am 21.1 23.2 18.1 83 1.9 NW 4 11 2 6 - - 0.0
27/11:00am 20.8 23.9 18.6 87 1.4 CALM 0 0 0 0 - - 0.0
27/10:48am 20.7 23.8 18.6 88 1.3 CALM 0 0 0 0 - - 0.0
27/10:31am 20.3 23.3 18.4 89 1.2 CALM 0 2 0 1 - - 0.0
27/10:30am 20.4 23.5 18.7 90 1.1 CALM 0 6 0 3 - - 0.0
27/10:29am 20.4 23.5 18.7 90 1.1 CALM 0 7 0 4 - - 0.0
27/10:00am 19.7 21.5 18.2 91 0.9 W 6 7 3 4 - - 0.0
27/09:30am 19.8 22.3 18.1 90 1.1 SSW 2 7 1 4 - - 0.0
27/09:17am 19.7 21.2 18.0 90 1.0 WSW 7 11 4 6 - - 0.0
27/09:00am 19.6 20.5 17.6 88 1.2 WSW 9 11 5 6 - - 0.2
27/08:30am 19.8 21.4 17.8 88 1.2 SSW 6 9 3 5 - - 0.2
27/08:00am 19.7 21.9 17.5 87 1.3 WSW 2 7 1 4 - - 0.2
27/07:30am 19.7 21.5 17.5 87 1.3 WSW 4 7 2 4 - - 0.2
27/07:00am 19.6 20.7 17.0 85 1.6 ESE 7 9 4 5 - - 0.2
27/06:30am 19.7 21.8 17.1 85 1.6 ENE 2 7 1 4 - - 0.2
27/06:05am 19.7 21.7 16.9 84 1.7 NE 2 7 1 4 - - 0.2
27/06:00am 19.8 21.1 17.0 84 1.7 NE 6 9 3 5 - - 0.2
27/05:51am 20.0 21.0 16.8 82 1.9 ENE 7 11 4 6 - - 0.2
27/05:30am 20.7 21.6 16.1 75 2.8 ENE 6 9 3 5 - - 0.2
27/05:00am 20.8 21.8 16.4 76 2.7 E 6 7 3 4 - - 0.2
27/04:30am 20.8 21.7 16.2 75 2.8 ENE 6 7 3 4 - - 0.2
27/04:00am 20.9 21.6 16.1 74 2.9 ENE 7 13 4 7 - - 0.2
27/03:30am 20.9 21.5 15.9 73 3.0 ENE 7 11 4 6 - - 0.2
27/03:00am 20.9 21.2 15.9 73 3.0 ESE 9 15 5 8 - - 0.2
27/02:30am 21.0 20.9 16.0 73 3.0 E 11 17 6 9 - - 0.2
27/02:00am 21.0 21.2 15.8 72 3.1 E 9 13 5 7 - - 0.2
27/01:30am 21.0 21.3 16.0 73 3.0 E 9 13 5 7 - - 0.2
27/01:00am 21.0 21.2 15.8 72 3.1 ESE 9 13 5 7 - - 0.2
27/12:30am 20.9 20.8 15.9 73 3.0 ESE 11 15 6 8 - - 0.2
27/12:00am 21.1 21.0 15.9 72 3.1 ESE 11 15 6 8 - - 0.2
 
Date/Time
EDT
Temp
°C
App
Temp
°C
Dew
Point
°C
Rel
Hum
%
Delta-T
°C
Wind Press
QNH
hPa
Press
MSL
hPa
Rain since
9am
mm
Dir  Spd
km/h
Gust
km/h
Spd
kts
Gust
kts
26/11:30pm 21.1 20.4 15.4 70 3.4 ESE 13 17 7 9 - - 0.2
26/11:00pm 21.2 20.2 15.5 70 3.4 ESE 15 20 8 11 - - 0.2
26/10:30pm 21.2 19.4 15.5 70 3.4 ESE 19 26 10 14 - - 0.2
26/10:00pm 21.4 20.5 15.9 71 3.3 ESE 15 24 8 13 - - 0.2
26/09:30pm 21.8 20.2 16.1 70 3.4 SE 19 28 10 15 - - 0.2
26/09:00pm 21.8 20.2 15.9 69 3.5 ESE 19 28 10 15 - - 0.2
26/08:30pm 21.9 20.8 16.4 71 3.3 SE 17 22 9 12 - - 0.2
26/08:00pm 21.9 20.3 16.4 71 3.3 SE 20 26 11 14 - - 0.2
26/07:30pm 22.1 20.7 16.6 71 3.3 SE 19 28 10 15 - - 0.2
26/07:00pm 22.3 20.8 16.8 71 3.4 SE 20 30 11 16 - - 0.2
26/06:30pm 22.6 20.5 17.1 71 3.4 SE 24 35 13 19 - - 0.2
26/06:00pm 23.0 20.8 17.0 69 3.7 SE 24 33 13 18 - - 0.2
26/05:30pm 23.5 21.1 17.3 68 3.8 SE 26 37 14 20 - - 0.2
26/05:00pm 24.7 22.9 17.9 66 4.3 SE 24 37 13 20 - - 0.2
26/04:30pm 24.8 21.6 15.4 56 5.7 SE 26 39 14 21 - - 0.2
26/04:00pm 24.7 22.0 16.7 61 4.9 SE 26 33 14 18 - - 0.2
26/03:30pm 24.8 22.4 16.5 60 5.1 SE 24 32 13 17 - - 0.2
26/03:00pm 24.9 23.3 17.4 63 4.7 SE 22 32 12 17 - - 0.2
26/02:30pm 24.8 22.8 17.5 64 4.6 SE 24 33 13 18 - - 0.2
26/02:00pm 25.2 23.8 17.9 64 4.6 SE 22 32 12 17 - - 0.2
26/01:30pm 25.6 25.2 19.3 68 4.0 SE 20 24 11 13 - - 0.2
26/01:00pm 25.8 25.9 19.9 70 3.8 SE 19 24 10 13 - - 0.2
26/12:30pm 24.9 24.4 17.9 65 4.4 ESE 17 24 9 13 - - 0.2
26/12:00pm 25.3 25.2 18.7 67 4.2 ESE 17 24 9 13 - - 0.2
26/11:30am 25.0 25.0 18.9 69 3.9 E 17 26 9 14 - - 0.2
26/11:00am 25.7 25.5 14.8 51 6.5 SSE 9 17 5 9 - - 0.0
26/10:30am 24.7 25.5 16.4 60 5.1 SW 7 15 4 8 - - 0.0
26/10:00am 23.5 24.6 17.0 67 4.0 SSW 7 13 4 7 - - 0.0
26/09:30am 22.5 23.9 18.7 79 2.4 S 9 17 5 9 - - 0.0
26/09:00am 21.0 23.8 18.9 88 1.3 NW 2 11 1 6 - - 5.6
26/08:30am 19.3 21.9 19.3 100 0.0 WNW 4 7 2 4 - - 5.6
26/08:00am 17.9 19.9 17.9 100 0.0 WNW 4 9 2 5 - - 5.6
26/07:30am 16.8 18.7 16.8 100 0.0 S 2 7 1 4 - - 5.6
26/07:15am 16.8 18.0 16.8 100 0.0 SSE 6 11 3 6 - - 5.6
26/07:00am 15.8 16.6 15.8 100 0.0 SE 6 9 3 5 - - 5.6
26/06:30am 16.5 17.6 16.5 100 0.0 WNW 6 9 3 5 - - 5.6
26/06:00am 16.4 17.4 16.4 100 0.0 NW 6 9 3 5 - - 5.6
26/05:30am 16.3 17.3 16.3 100 0.0 WNW 6 9 3 5 - - 5.6
26/05:08am 16.5 17.6 16.5 100 0.0 WNW 6 11 3 6 - - 5.6
26/05:00am 16.6 17.7 16.6 100 0.0 WNW 6 9 3 5 - - 5.6
26/04:51am 16.6 17.5 16.6 100 0.0 NW 7 11 4 6 - - 5.6
26/04:30am 15.9 17.9 15.9 100 0.0 CALM 0 6 0 3 - - 5.6
26/04:00am 16.6 18.8 16.6 100 0.0 CALM 0 6 0 3 - - 5.6
26/03:30am 15.6 17.4 15.4 99 0.1 CALM 0 0 0 0 - - 5.6
26/03:00am 16.9 19.3 16.9 100 0.0 CALM 0 0 0 0 - - 5.6
26/02:47am 16.9 18.9 16.9 100 0.0 NNW 2 7 1 4 - - 5.6
26/02:37am 16.8 17.8 16.8 100 0.0 NNW 7 7 4 4 - - 5.6
26/02:30am 16.8 17.8 16.8 100 0.0 NW 7 9 4 5 - - 5.6
26/02:00am 16.9 18.1 16.9 100 0.0 WNW 6 9 3 5 - - 5.6
26/01:30am 16.5 18.6 16.3 99 0.1 CALM 0 0 0 0 - - 5.6
26/01:00am 16.9 19.2 16.7 99 0.1 CALM 0 0 0 0 - - 5.6
26/12:30am 17.0 19.3 16.8 99 0.1 CALM 0 0 0 0 - - 5.6
26/12:00am 17.7 19.6 17.7 100 0.0 N 4 7 2 4 - - 5.6
 
Date/Time
EDT
Temp
°C
App
Temp
°C
Dew
Point
°C
Rel
Hum
%
Delta-T
°C
Wind Press
QNH
hPa
Press
MSL
hPa
Rain since
9am
mm
Dir  Spd
km/h
Gust
km/h
Spd
kts
Gust
kts
25/11:30pm 18.2 19.8 18.2 100 0.0 N 7 11 4 6 - - 5.6
25/11:08pm 17.5 19.7 17.5 100 0.0 N 2 7 1 4 - - 5.6
25/11:00pm 17.7 20.4 17.7 100 0.0 CALM 0 0 0 0 - - 5.6
25/10:51pm 17.2 19.6 17.0 99 0.1 CALM 0 0 0 0 - - 5.6
25/10:41pm 17.8 20.1 17.8 100 0.0 N 2 9 1 5 - - 5.6
25/10:30pm 17.7 19.9 17.5 99 0.1 N 2 11 1 6 - - 5.6
25/10:21pm 17.2 19.6 17.0 99 0.1 CALM 0 0 0 0 - - 5.6
25/10:17pm 18.2 21.0 18.0 99 0.1 CALM 0 0 0 0 - - 5.6
25/10:00pm 17.8 20.2 17.0 95 0.5 CALM 0 0 0 0 - - 5.6
25/09:30pm 18.7 21.1 17.9 95 0.5 N 2 7 1 4 - - 5.6
25/09:22pm 18.4 20.6 17.4 94 0.6 N 2 9 1 5 - - 5.6
25/09:05pm 18.5 21.0 17.2 92 0.8 CALM 0 0 0 0 - - 5.6
25/09:00pm 18.8 21.4 17.5 92 0.8 CALM 0 0 0 0 - - 5.6
25/08:46pm 19.1 21.2 17.2 89 1.2 N 2 6 1 3 - - 5.6
25/08:30pm 19.8 22.2 17.9 89 1.2 N 2 6 1 3 - - 5.6
25/08:00pm 20.5 22.3 18.3 87 1.4 NNW 6 9 3 5 - - 5.6
25/07:30pm 21.3 22.9 18.3 83 1.9 NNW 7 11 4 6 - - 5.6
25/07:00pm 21.4 22.6 18.2 82 2.0 N 9 19 5 10 - - 5.6
25/06:30pm 20.8 22.6 18.7 88 1.3 NW 7 11 4 6 - - 5.6
25/06:00pm 20.8 22.7 18.9 89 1.2 NNE 7 11 4 6 - - 5.6

Latest Capital City Observations: Canberra | Sydney | Melbourne | Brisbane | Adelaide | Perth | Hobart | Darwin

Other formats

Comma delimited format used in spreadsheet applications
http://www.bom.gov.au/fwo/IDN60901/IDN60901.94766.axf

JavaScript Object Notation format (JSON) in row-major order
http://www.bom.gov.au/fwo/IDN60901/IDN60901.94766.json

Data quality

Most of these data are generated automatically and are frequently updated. Quality checks on data are not normally performed. It is possible for incorrect values to appear. Refer to information at About Latest Weather Observations and please check the disclaimer before using these data.